Forside
METAR-TAF:

METAR-TAF

Lufthavne :

Olieplatform

Sleipner, Norge

Breddekreds: 58-22-00N, længdekreds: 001-54-25E, højde: 50 m

Aktuelle vejr

Denne rapport blev lavet for 30 minutter siden, kl. 18:50 UTC
Vind 18 kt fra sydvest
Temperatur 8°C
Fugtighed 66%
Tryk 1002 hPa
Sigt 10 km eller mere

METAR: ENSL 021850Z AUTO 23018KT 9999NDV FEW029/// 08/02 Q1002 W07/S4

Tid: 20:20 (19:20 UTC)


TAF: fraværende

Vejrobservationer og prognoser fra mere end 4000 lufthavne (METAR og TAF).

De gule og røde prikker repræsenterer de meteorologiske stationer.

Flyt musen over at se navnet på stationen.

Så klik over at se vejr observationer og prognoser.

At skifte det kort: Klik på de grønne knapper med et sort kors for at zoome ind; på den grønne knap med en bindestreg for at zoome ud; eller på de grønne pile for tilstødende kort.


METAR-TAF: